createdAt,value
2018-06-05T16:12:19.818Z,23.40
2018-06-05T16:17:14.176Z,24.00
2018-06-05T16:19:41.237Z,24.00
2018-06-05T16:22:08.529Z,23.60
2018-06-05T16:24:35.621Z,23.80
2018-06-05T16:27:02.679Z,23.90
2018-06-05T16:29:29.742Z,23.90
2018-06-05T16:31:56.793Z,23.70
2018-06-05T16:34:23.853Z,23.70
2018-06-05T16:36:50.993Z,24.10
2018-06-05T16:39:18.147Z,24.30
2018-06-05T16:41:45.323Z,24.50
2018-06-05T16:44:12.455Z,24.30
2018-06-05T16:46:39.543Z,24.30
2018-06-05T16:49:06.678Z,24.60
2018-06-05T16:51:33.742Z,24.80
2018-06-05T16:54:00.795Z,24.60
2018-06-05T16:56:27.860Z,24.40
2018-06-05T16:58:54.952Z,24.40
2018-06-05T17:01:22.027Z,24.30
2018-06-05T17:03:49.130Z,24.00
2018-06-05T17:06:16.384Z,24.00
2018-06-05T17:08:43.534Z,23.30
2018-06-05T17:11:10.578Z,23.50
2018-06-05T17:13:37.631Z,23.80
2018-06-05T17:16:04.822Z,23.90
2018-06-05T17:18:31.868Z,24.00
2018-06-05T17:20:58.913Z,24.00
2018-06-05T17:23:25.917Z,24.20
2018-06-05T17:25:52.996Z,24.20
2018-06-05T17:28:20.084Z,24.30
2018-06-05T17:30:47.276Z,24.20
2018-06-05T17:33:14.415Z,24.10
2018-06-05T17:35:41.464Z,24.00
2018-06-05T17:38:08.536Z,23.60
2018-06-05T17:40:35.669Z,23.40
2018-06-05T17:43:02.754Z,23.40
2018-06-05T17:45:29.896Z,23.50
2018-06-05T17:47:57.397Z,23.40
2018-06-05T17:50:24.442Z,23.60
2018-06-05T17:52:51.550Z,23.10
2018-06-05T17:55:18.705Z,23.20
2018-06-05T17:57:45.876Z,23.20
2018-06-05T18:00:13.038Z,23.20
2018-06-05T18:02:40.098Z,22.90
2018-06-05T18:05:07.129Z,23.00
2018-06-05T18:07:34.311Z,22.80
2018-06-05T18:10:01.377Z,22.90
2018-06-05T18:12:28.474Z,22.90
2018-06-05T18:14:55.610Z,23.00
2018-06-05T18:17:22.663Z,22.90
2018-06-05T18:19:49.843Z,22.90
2018-06-05T18:22:17.024Z,22.90
2018-06-05T18:24:44.510Z,22.80
2018-06-05T18:27:11.567Z,22.90
2018-06-05T18:29:38.627Z,22.80
2018-06-05T18:32:05.956Z,22.80
2018-06-05T18:34:33.088Z,22.80
2018-06-05T18:37:00.212Z,22.70
2018-06-05T18:39:27.218Z,22.60
2018-06-05T18:41:54.322Z,22.40
2018-06-05T18:44:21.413Z,22.30
2018-06-05T18:46:48.537Z,22.40
2018-06-05T18:49:15.686Z,22.40
2018-06-05T18:51:42.768Z,22.40
2018-06-05T18:54:09.875Z,22.00
2018-06-05T18:56:36.913Z,22.00
2018-06-05T18:59:04.202Z,21.70
2018-06-05T19:01:31.282Z,21.10
2018-06-05T19:03:58.329Z,20.70
2018-06-05T19:06:25.417Z,20.90
2018-06-05T19:08:52.555Z,21.00
2018-06-05T19:11:19.681Z,20.60
2018-06-05T19:13:46.923Z,20.30
2018-06-05T19:16:14.130Z,20.00
2018-06-05T19:18:41.268Z,20.00
2018-06-05T19:21:08.306Z,20.10
2018-06-05T19:23:35.347Z,20.00
2018-06-05T19:26:02.437Z,19.60
2018-06-05T19:28:29.496Z,19.40
2018-06-05T19:30:56.658Z,19.30
2018-06-05T19:33:23.715Z,19.30
2018-06-05T19:35:50.829Z,19.50
2018-06-05T19:38:18.110Z,19.70
2018-06-05T19:40:45.503Z,19.80
2018-06-05T19:43:12.547Z,19.90
2018-06-05T19:45:39.623Z,19.70
2018-06-05T19:48:06.699Z,19.20
2018-06-05T19:50:33.736Z,18.80
2018-06-05T19:53:00.810Z,18.60
2018-06-05T19:55:27.849Z,18.80
2018-06-05T20:00:22.150Z,18.90
